Milnesand, New Mexico
Current Conditions -  °F | °C
As of 8:58 AM on Saturday 25 Oct 2014 (Local Time) from KCVS Reporting Station
Clear Clear  
Wind Chill: 62°   Ceiling: Unl
Heat Index: 62°   Visibility: 10mi
Dew Point: 51°   Wind: 5mph
Humidity: 69%   Direction: 240°WSW
Pressure: 30.24"   Gusts: NA
Location:  33.64°N, 103.34°W
Report Text: KCVS 251458Z AUTO 24004KT 10SM CLR 16/11 A3024 RMK AO2 SLP200 T01640107 52013 $
Loading
Personal Weather Stations






























Interactive Weather Map
Tropical Storm Tracking
New forecast layout! Learn more

10-Day Weather Forecast

Advertisements
Track Severe Weather on mobile